sensor_id;sensor_type;location;lat;lon;timestamp;P1;durP1;ratioP1;P2;durP2;ratioP2
286;SDS011;127;48.770;9.212;2022-07-01T00:01:27;7.10;;;2.63;;
286;SDS011;127;48.770;9.212;2022-07-01T00:04:08;2.90;;;2.30;;
286;SDS011;127;48.770;9.212;2022-07-01T00:06:45;5.27;;;2.40;;
286;SDS011;127;48.770;9.212;2022-07-01T00:09:29;5.93;;;3.30;;
286;SDS011;127;48.770;9.212;2022-07-01T00:12:07;4.17;;;2.20;;
286;SDS011;127;48.770;9.212;2022-07-01T00:14:40;2.67;;;1.77;;
286;SDS011;127;48.770;9.212;2022-07-01T00:17:22;5.80;;;2.50;;
286;SDS011;127;48.770;9.212;2022-07-01T00:20:03;6.83;;;2.53;;
286;SDS011;127;48.770;9.212;2022-07-01T00:22:46;4.73;;;2.50;;
286;SDS011;127;48.770;9.212;2022-07-01T00:25:20;2.73;;;2.00;;
286;SDS011;127;48.770;9.212;2022-07-01T00:27:52;1.73;;;1.70;;
286;SDS011;127;48.770;9.212;2022-07-01T00:30:35;2.17;;;1.60;;
286;SDS011;127;48.770;9.212;2022-07-01T00:33:24;3.87;;;2.43;;
286;SDS011;127;48.770;9.212;2022-07-01T00:36:12;3.20;;;1.87;;
286;SDS011;127;48.770;9.212;2022-07-01T00:39:09;2.63;;;1.60;;
286;SDS011;127;48.770;9.212;2022-07-01T00:41:43;4.67;;;2.03;;
286;SDS011;127;48.770;9.212;2022-07-01T00:44:17;1.60;;;1.50;;
286;SDS011;127;48.770;9.212;2022-07-01T00:46:54;8.83;;;2.83;;
286;SDS011;127;48.770;9.212;2022-07-01T00:49:31;4.30;;;1.90;;
286;SDS011;127;48.770;9.212;2022-07-01T00:52:20;2.10;;;1.60;;
286;SDS011;127;48.770;9.212;2022-07-01T00:55:03;6.80;;;1.67;;
286;SDS011;127;48.770;9.212;2022-07-01T00:57:37;2.90;;;1.70;;
286;SDS011;127;48.770;9.212;2022-07-01T01:00:19;2.83;;;1.43;;
286;SDS011;127;48.770;9.212;2022-07-01T01:02:58;2.77;;;2.00;;
286;SDS011;127;48.770;9.212;2022-07-01T01:05:52;1.80;;;1.20;;
286;SDS011;127;48.770;9.212;2022-07-01T01:08:25;7.27;;;1.80;;
286;SDS011;127;48.770;9.212;2022-07-01T01:11:03;4.40;;;1.33;;
286;SDS011;127;48.770;9.212;2022-07-01T01:13:43;1.97;;;1.40;;
286;SDS011;127;48.770;9.212;2022-07-01T01:16:24;1.97;;;1.40;;
286;SDS011;127;48.770;9.212;2022-07-01T01:18:59;1.57;;;1.30;;
286;SDS011;127;48.770;9.212;2022-07-01T01:21:38;2.37;;;1.57;;
286;SDS011;127;48.770;9.212;2022-07-01T01:24:10;2.30;;;1.43;;
286;SDS011;127;48.770;9.212;2022-07-01T01:26:42;9.43;;;1.80;;
286;SDS011;127;48.770;9.212;2022-07-01T01:29:24;4.40;;;1.67;;
286;SDS011;127;48.770;9.212;2022-07-01T01:32:00;1.60;;;1.50;;
286;SDS011;127;48.770;9.212;2022-07-01T01:34:34;3.53;;;1.80;;
286;SDS011;127;48.770;9.212;2022-07-01T01:37:11;2.10;;;2.00;;
286;SDS011;127;48.770;9.212;2022-07-01T01:39:44;3.10;;;1.43;;
286;SDS011;127;48.770;9.212;2022-07-01T01:42:14;3.77;;;1.67;;
286;SDS011;127;48.770;9.212;2022-07-01T01:44:55;3.77;;;2.13;;
286;SDS011;127;48.770;9.212;2022-07-01T01:47:28;1.90;;;1.70;;
286;SDS011;127;48.770;9.212;2022-07-01T01:50:00;1.37;;;1.30;;
286;SDS011;127;48.770;9.212;2022-07-01T01:52:36;4.80;;;1.73;;
286;SDS011;127;48.770;9.212;2022-07-01T01:55:08;5.70;;;1.70;;
286;SDS011;127;48.770;9.212;2022-07-01T01:57:39;1.83;;;1.57;;
286;SDS011;127;48.770;9.212;2022-07-01T02:00:11;2.20;;;2.00;;
286;SDS011;127;48.770;9.212;2022-07-01T02:02:51;1.57;;;1.47;;
286;SDS011;127;48.770;9.212;2022-07-01T02:05:23;3.83;;;1.93;;
286;SDS011;127;48.770;9.212;2022-07-01T02:08:08;3.70;;;1.50;;
286;SDS011;127;48.770;9.212;2022-07-01T02:10:43;2.70;;;1.50;;
286;SDS011;127;48.770;9.212;2022-07-01T02:13:13;4.70;;;1.90;;
286;SDS011;127;48.770;9.212;2022-07-01T02:15:48;2.20;;;1.80;;
286;SDS011;127;48.770;9.212;2022-07-01T02:18:39;2.23;;;1.60;;
286;SDS011;127;48.770;9.212;2022-07-01T02:21:15;2.40;;;1.97;;
286;SDS011;127;48.770;9.212;2022-07-01T02:23:53;5.23;;;2.30;;
286;SDS011;127;48.770;9.212;2022-07-01T02:26:26;2.43;;;1.57;;
286;SDS011;127;48.770;9.212;2022-07-01T02:29:04;2.20;;;1.87;;
286;SDS011;127;48.770;9.212;2022-07-01T02:31:48;2.50;;;2.10;;
286;SDS011;127;48.770;9.212;2022-07-01T02:34:23;2.17;;;1.60;;
286;SDS011;127;48.770;9.212;2022-07-01T02:37:14;2.87;;;1.80;;
286;SDS011;127;48.770;9.212;2022-07-01T02:40:02;10.93;;;3.97;;
286;SDS011;127;48.770;9.212;2022-07-01T02:42:39;4.90;;;2.17;;
286;SDS011;127;48.770;9.212;2022-07-01T02:45:23;2.17;;;1.97;;
286;SDS011;127;48.770;9.212;2022-07-01T02:47:55;6.33;;;1.90;;
286;SDS011;127;48.770;9.212;2022-07-01T02:50:30;3.37;;;1.70;;
286;SDS011;127;48.770;9.212;2022-07-01T02:53:15;3.43;;;2.10;;
286;SDS011;127;48.770;9.212;2022-07-01T02:56:01;2.13;;;1.80;;
286;SDS011;127;48.770;9.212;2022-07-01T02:58:42;4.93;;;2.30;;
286;SDS011;127;48.770;9.212;2022-07-01T03:01:29;3.27;;;2.10;;
286;SDS011;127;48.770;9.212;2022-07-01T03:03:59;3.93;;;2.60;;
286;SDS011;127;48.770;9.212;2022-07-01T03:06:33;5.67;;;2.87;;
286;SDS011;127;48.770;9.212;2022-07-01T03:09:11;2.90;;;2.20;;
286;SDS011;127;48.770;9.212;2022-07-01T03:11:49;4.33;;;2.70;;
286;SDS011;127;48.770;9.212;2022-07-01T03:14:26;3.87;;;2.37;;
286;SDS011;127;48.770;9.212;2022-07-01T03:16:56;6.33;;;2.80;;
286;SDS011;127;48.770;9.212;2022-07-01T03:19:29;12.87;;;2.80;;
286;SDS011;127;48.770;9.212;2022-07-01T03:22:03;3.77;;;2.20;;
286;SDS011;127;48.770;9.212;2022-07-01T03:24:39;3.30;;;2.30;;
286;SDS011;127;48.770;9.212;2022-07-01T03:27:17;7.30;;;2.47;;
286;SDS011;127;48.770;9.212;2022-07-01T03:29:51;2.60;;;2.20;;
286;SDS011;127;48.770;9.212;2022-07-01T03:32:31;3.00;;;2.37;;
286;SDS011;127;48.770;9.212;2022-07-01T03:35:01;5.23;;;2.70;;
286;SDS011;127;48.770;9.212;2022-07-01T03:37:57;3.27;;;2.07;;
286;SDS011;127;48.770;9.212;2022-07-01T03:40:43;3.07;;;2.10;;
286;SDS011;127;48.770;9.212;2022-07-01T03:43:20;3.50;;;2.17;;
286;SDS011;127;48.770;9.212;2022-07-01T03:45:50;1.80;;;1.70;;
286;SDS011;127;48.770;9.212;2022-07-01T03:48:40;2.63;;;2.20;;
286;SDS011;127;48.770;9.212;2022-07-01T03:51:41;7.10;;;2.00;;
286;SDS011;127;48.770;9.212;2022-07-01T03:54:29;2.17;;;2.00;;
286;SDS011;127;48.770;9.212;2022-07-01T03:57:05;3.73;;;1.80;;
286;SDS011;127;48.770;9.212;2022-07-01T04:00:17;2.70;;;1.90;;
286;SDS011;127;48.770;9.212;2022-07-01T04:02:50;2.80;;;2.30;;
286;SDS011;127;48.770;9.212;2022-07-01T04:05:24;2.70;;;2.33;;
286;SDS011;127;48.770;9.212;2022-07-01T04:07:59;3.13;;;2.40;;
286;SDS011;127;48.770;9.212;2022-07-01T04:10:31;7.60;;;2.10;;
286;SDS011;127;48.770;9.212;2022-07-01T04:13:09;2.80;;;2.40;;
286;SDS011;127;48.770;9.212;2022-07-01T04:15:46;3.60;;;1.90;;
286;SDS011;127;48.770;9.212;2022-07-01T04:18:18;4.53;;;2.30;;
286;SDS011;127;48.770;9.212;2022-07-01T04:20:48;3.83;;;2.07;;
286;SDS011;127;48.770;9.212;2022-07-01T04:23:30;4.77;;;2.10;;
286;SDS011;127;48.770;9.212;2022-07-01T04:26:08;3.47;;;2.80;;
286;SDS011;127;48.770;9.212;2022-07-01T04:28:43;4.07;;;2.20;;
286;SDS011;127;48.770;9.212;2022-07-01T04:31:20;2.57;;;2.10;;
286;SDS011;127;48.770;9.212;2022-07-01T04:33:50;8.60;;;2.73;;
286;SDS011;127;48.770;9.212;2022-07-01T04:36:22;2.67;;;2.10;;
286;SDS011;127;48.770;9.212;2022-07-01T04:38:52;9.20;;;2.50;;
286;SDS011;127;48.770;9.212;2022-07-01T04:41:22;2.27;;;1.93;;
286;SDS011;127;48.770;9.212;2022-07-01T04:44:06;12.50;;;2.83;;
286;SDS011;127;48.770;9.212;2022-07-01T04:46:41;2.07;;;1.80;;
286;SDS011;127;48.770;9.212;2022-07-01T04:49:14;2.50;;;2.20;;
286;SDS011;127;48.770;9.212;2022-07-01T04:51:44;3.63;;;2.20;;
286;SDS011;127;48.770;9.212;2022-07-01T04:54:16;6.47;;;2.67;;
286;SDS011;127;48.770;9.212;2022-07-01T04:56:51;5.47;;;2.60;;
286;SDS011;127;48.770;9.212;2022-07-01T04:59:24;4.30;;;2.47;;
286;SDS011;127;48.770;9.212;2022-07-01T05:01:56;3.23;;;2.30;;
286;SDS011;127;48.770;9.212;2022-07-01T05:04:31;3.27;;;2.20;;
286;SDS011;127;48.770;9.212;2022-07-01T05:07:01;4.43;;;2.53;;
286;SDS011;127;48.770;9.212;2022-07-01T05:09:53;2.87;;;2.10;;
286;SDS011;127;48.770;9.212;2022-07-01T05:12:28;7.23;;;2.63;;
286;SDS011;127;48.770;9.212;2022-07-01T05:15:06;3.03;;;2.40;;
286;SDS011;127;48.770;9.212;2022-07-01T05:17:46;3.83;;;2.63;;
286;SDS011;127;48.770;9.212;2022-07-01T05:20:27;3.40;;;2.80;;
286;SDS011;127;48.770;9.212;2022-07-01T05:23:09;5.43;;;2.93;;
286;SDS011;127;48.770;9.212;2022-07-01T05:25:46;3.60;;;2.30;;
286;SDS011;127;48.770;9.212;2022-07-01T05:28:17;4.80;;;2.40;;
286;SDS011;127;48.770;9.212;2022-07-01T05:30:49;4.53;;;2.80;;
286;SDS011;127;48.770;9.212;2022-07-01T05:33:30;4.47;;;3.00;;
286;SDS011;127;48.770;9.212;2022-07-01T05:36:05;6.13;;;3.30;;
286;SDS011;127;48.770;9.212;2022-07-01T05:38:40;6.60;;;2.90;;
286;SDS011;127;48.770;9.212;2022-07-01T05:41:10;7.73;;;2.97;;
286;SDS011;127;48.770;9.212;2022-07-01T05:43:41;6.90;;;2.90;;
286;SDS011;127;48.770;9.212;2022-07-01T05:46:16;4.30;;;3.07;;
286;SDS011;127;48.770;9.212;2022-07-01T05:48:50;6.87;;;4.50;;
286;SDS011;127;48.770;9.212;2022-07-01T05:51:22;7.50;;;3.80;;
286;SDS011;127;48.770;9.212;2022-07-01T05:53:52;12.03;;;3.70;;
286;SDS011;127;48.770;9.212;2022-07-01T05:56:22;11.40;;;4.27;;
286;SDS011;127;48.770;9.212;2022-07-01T05:58:54;7.83;;;4.70;;
286;SDS011;127;48.770;9.212;2022-07-01T06:01:30;6.53;;;3.60;;
286;SDS011;127;48.770;9.212;2022-07-01T06:04:06;7.03;;;4.80;;
286;SDS011;127;48.770;9.212;2022-07-01T06:06:39;9.70;;;5.30;;
286;SDS011;127;48.770;9.212;2022-07-01T06:09:13;8.43;;;4.77;;
286;SDS011;127;48.770;9.212;2022-07-01T06:11:48;9.20;;;4.63;;
286;SDS011;127;48.770;9.212;2022-07-01T06:14:20;11.50;;;5.37;;
286;SDS011;127;48.770;9.212;2022-07-01T06:16:52;9.17;;;5.20;;
286;SDS011;127;48.770;9.212;2022-07-01T06:19:28;7.47;;;4.63;;
286;SDS011;127;48.770;9.212;2022-07-01T06:22:03;8.70;;;4.47;;
286;SDS011;127;48.770;9.212;2022-07-01T06:24:32;7.27;;;4.97;;
286;SDS011;127;48.770;9.212;2022-07-01T06:27:01;10.33;;;5.77;;
286;SDS011;127;48.770;9.212;2022-07-01T06:29:31;10.93;;;5.47;;
286;SDS011;127;48.770;9.212;2022-07-01T06:31:59;9.87;;;4.90;;
286;SDS011;127;48.770;9.212;2022-07-01T06:34:31;8.90;;;4.50;;
286;SDS011;127;48.770;9.212;2022-07-01T06:36:59;6.97;;;4.97;;
286;SDS011;127;48.770;9.212;2022-07-01T06:39:28;5.80;;;4.37;;
286;SDS011;127;48.770;9.212;2022-07-01T06:41:57;6.43;;;4.20;;
286;SDS011;127;48.770;9.212;2022-07-01T06:44:26;10.70;;;4.47;;
286;SDS011;127;48.770;9.212;2022-07-01T06:46:55;7.47;;;3.77;;
286;SDS011;127;48.770;9.212;2022-07-01T06:49:24;6.00;;;3.83;;
286;SDS011;127;48.770;9.212;2022-07-01T06:51:55;5.07;;;3.53;;
286;SDS011;127;48.770;9.212;2022-07-01T06:54:27;4.60;;;3.63;;
286;SDS011;127;48.770;9.212;2022-07-01T06:56:56;6.13;;;3.30;;
286;SDS011;127;48.770;9.212;2022-07-01T06:59:24;5.60;;;3.63;;
286;SDS011;127;48.770;9.212;2022-07-01T07:01:53;6.33;;;3.70;;
286;SDS011;127;48.770;9.212;2022-07-01T07:04:22;12.83;;;3.80;;
286;SDS011;127;48.770;9.212;2022-07-01T07:06:51;6.83;;;3.10;;
286;SDS011;127;48.770;9.212;2022-07-01T07:09:22;5.00;;;3.03;;
286;SDS011;127;48.770;9.212;2022-07-01T07:11:51;7.77;;;3.10;;
286;SDS011;127;48.770;9.212;2022-07-01T07:14:20;9.57;;;3.10;;
286;SDS011;127;48.770;9.212;2022-07-01T07:16:48;6.83;;;3.87;;
286;SDS011;127;48.770;9.212;2022-07-01T07:19:20;4.30;;;3.07;;
286;SDS011;127;48.770;9.212;2022-07-01T07:21:49;4.80;;;3.17;;
286;SDS011;127;48.770;9.212;2022-07-01T07:24:17;6.07;;;3.20;;
286;SDS011;127;48.770;9.212;2022-07-01T07:26:49;3.63;;;2.33;;
286;SDS011;127;48.770;9.212;2022-07-01T07:29:17;9.83;;;3.10;;
286;SDS011;127;48.770;9.212;2022-07-01T07:31:46;4.60;;;3.40;;
286;SDS011;127;48.770;9.212;2022-07-01T07:34:15;3.57;;;3.20;;
286;SDS011;127;48.770;9.212;2022-07-01T07:36:43;2.70;;;2.40;;
286;SDS011;127;48.770;9.212;2022-07-01T07:39:12;7.50;;;3.67;;
286;SDS011;127;48.770;9.212;2022-07-01T07:41:41;5.30;;;3.20;;
286;SDS011;127;48.770;9.212;2022-07-01T07:44:12;3.17;;;2.90;;
286;SDS011;127;48.770;9.212;2022-07-01T07:46:41;5.83;;;2.50;;
286;SDS011;127;48.770;9.212;2022-07-01T07:49:09;6.30;;;3.23;;
286;SDS011;127;48.770;9.212;2022-07-01T07:51:38;4.40;;;3.03;;
286;SDS011;127;48.770;9.212;2022-07-01T07:54:07;6.43;;;2.90;;
286;SDS011;127;48.770;9.212;2022-07-01T07:56:36;11.20;;;4.27;;
286;SDS011;127;48.770;9.212;2022-07-01T07:59:04;7.90;;;3.33;;
286;SDS011;127;48.770;9.212;2022-07-01T08:01:36;11.70;;;4.20;;
286;SDS011;127;48.770;9.212;2022-07-01T08:04:04;7.10;;;3.37;;
286;SDS011;127;48.770;9.212;2022-07-01T08:06:33;5.70;;;3.30;;
286;SDS011;127;48.770;9.212;2022-07-01T08:09:02;4.97;;;3.33;;
286;SDS011;127;48.770;9.212;2022-07-01T08:11:31;9.20;;;3.83;;
286;SDS011;127;48.770;9.212;2022-07-01T08:14:00;7.53;;;3.90;;
286;SDS011;127;48.770;9.212;2022-07-01T08:16:29;4.10;;;2.60;;
286;SDS011;127;48.770;9.212;2022-07-01T08:19:00;4.33;;;3.03;;
286;SDS011;127;48.770;9.212;2022-07-01T08:21:29;4.33;;;3.10;;
286;SDS011;127;48.770;9.212;2022-07-01T08:23:58;6.43;;;2.60;;
286;SDS011;127;48.770;9.212;2022-07-01T08:26:28;5.93;;;3.10;;
286;SDS011;127;48.770;9.212;2022-07-01T08:28:57;6.37;;;3.20;;
286;SDS011;127;48.770;9.212;2022-07-01T08:31:28;5.77;;;3.70;;
286;SDS011;127;48.770;9.212;2022-07-01T08:34:02;6.23;;;4.00;;
286;SDS011;127;48.770;9.212;2022-07-01T08:36:31;6.17;;;3.70;;
286;SDS011;127;48.770;9.212;2022-07-01T08:39:01;8.20;;;3.37;;
286;SDS011;127;48.770;9.212;2022-07-01T08:41:30;7.63;;;3.40;;
286;SDS011;127;48.770;9.212;2022-07-01T08:43:58;4.87;;;3.10;;
286;SDS011;127;48.770;9.212;2022-07-01T08:46:28;7.30;;;2.80;;
286;SDS011;127;48.770;9.212;2022-07-01T08:48:56;3.80;;;2.97;;
286;SDS011;127;48.770;9.212;2022-07-01T08:51:27;4.67;;;2.93;;
286;SDS011;127;48.770;9.212;2022-07-01T08:53:56;7.20;;;3.33;;
286;SDS011;127;48.770;9.212;2022-07-01T08:56:25;5.93;;;2.87;;
286;SDS011;127;48.770;9.212;2022-07-01T08:59:10;3.27;;;2.97;;
286;SDS011;127;48.770;9.212;2022-07-01T09:01:40;6.30;;;3.67;;
286;SDS011;127;48.770;9.212;2022-07-01T09:04:15;4.40;;;3.27;;
286;SDS011;127;48.770;9.212;2022-07-01T09:06:49;4.63;;;2.97;;
286;SDS011;127;48.770;9.212;2022-07-01T09:09:19;5.20;;;3.20;;
286;SDS011;127;48.770;9.212;2022-07-01T09:11:50;3.67;;;3.00;;
286;SDS011;127;48.770;9.212;2022-07-01T09:14:21;5.80;;;3.13;;
286;SDS011;127;48.770;9.212;2022-07-01T09:16:52;7.67;;;3.37;;
286;SDS011;127;48.770;9.212;2022-07-01T09:19:23;6.20;;;3.30;;
286;SDS011;127;48.770;9.212;2022-07-01T09:21:55;4.67;;;3.33;;
286;SDS011;127;48.770;9.212;2022-07-01T09:24:26;8.40;;;3.43;;
286;SDS011;127;48.770;9.212;2022-07-01T09:26:57;4.37;;;2.93;;
286;SDS011;127;48.770;9.212;2022-07-01T09:29:28;4.73;;;3.23;;
286;SDS011;127;48.770;9.212;2022-07-01T09:31:59;6.47;;;3.77;;
286;SDS011;127;48.770;9.212;2022-07-01T09:34:32;6.90;;;4.03;;
286;SDS011;127;48.770;9.212;2022-07-01T09:37:04;9.20;;;4.10;;
286;SDS011;127;48.770;9.212;2022-07-01T09:39:41;9.83;;;4.60;;
286;SDS011;127;48.770;9.212;2022-07-01T09:42:11;21.30;;;5.97;;
286;SDS011;127;48.770;9.212;2022-07-01T09:44:52;11.33;;;4.90;;
286;SDS011;127;48.770;9.212;2022-07-01T09:47:22;7.90;;;4.57;;
286;SDS011;127;48.770;9.212;2022-07-01T09:49:51;6.70;;;4.07;;
286;SDS011;127;48.770;9.212;2022-07-01T09:52:23;5.20;;;3.97;;
286;SDS011;127;48.770;9.212;2022-07-01T09:54:53;7.80;;;3.70;;
286;SDS011;127;48.770;9.212;2022-07-01T09:57:21;31.30;;;4.60;;
286;SDS011;127;48.770;9.212;2022-07-01T09:59:50;7.30;;;3.77;;
286;SDS011;127;48.770;9.212;2022-07-01T10:02:20;10.13;;;3.87;;
286;SDS011;127;48.770;9.212;2022-07-01T10:05:00;6.33;;;4.23;;
286;SDS011;127;48.770;9.212;2022-07-01T10:07:39;6.40;;;3.03;;
286;SDS011;127;48.770;9.212;2022-07-01T10:10:21;5.00;;;3.40;;
286;SDS011;127;48.770;9.212;2022-07-01T10:12:58;6.67;;;3.03;;
286;SDS011;127;48.770;9.212;2022-07-01T10:15:30;4.00;;;2.80;;
286;SDS011;127;48.770;9.212;2022-07-01T10:17:59;5.40;;;3.23;;
286;SDS011;127;48.770;9.212;2022-07-01T10:20:28;3.67;;;2.60;;
286;SDS011;127;48.770;9.212;2022-07-01T10:23:04;3.97;;;2.90;;
286;SDS011;127;48.770;9.212;2022-07-01T10:25:41;3.10;;;2.87;;
286;SDS011;127;48.770;9.212;2022-07-01T10:28:11;3.40;;;2.60;;
286;SDS011;127;48.770;9.212;2022-07-01T10:30:48;4.90;;;1.90;;
286;SDS011;127;48.770;9.212;2022-07-01T10:33:28;4.10;;;3.00;;
286;SDS011;127;48.770;9.212;2022-07-01T10:36:05;4.00;;;2.40;;
286;SDS011;127;48.770;9.212;2022-07-01T10:39:07;4.80;;;2.60;;
286;SDS011;127;48.770;9.212;2022-07-01T10:41:39;3.33;;;2.30;;
286;SDS011;127;48.770;9.212;2022-07-01T10:44:09;3.27;;;2.40;;
286;SDS011;127;48.770;9.212;2022-07-01T10:46:39;2.80;;;2.00;;
286;SDS011;127;48.770;9.212;2022-07-01T10:49:09;2.83;;;2.20;;
286;SDS011;127;48.770;9.212;2022-07-01T10:51:46;3.40;;;1.90;;
286;SDS011;127;48.770;9.212;2022-07-01T10:57:30;2.83;;;1.60;;
286;SDS011;127;48.770;9.212;2022-07-01T11:03:14;3.27;;;1.80;;
286;SDS011;127;48.770;9.212;2022-07-01T11:05:45;1.70;;;1.60;;
286;SDS011;127;48.770;9.212;2022-07-01T11:08:15;6.23;;;2.30;;
286;SDS011;127;48.770;9.212;2022-07-01T11:10:49;2.67;;;1.90;;
286;SDS011;127;48.770;9.212;2022-07-01T11:13:19;4.13;;;1.60;;
286;SDS011;127;48.770;9.212;2022-07-01T11:15:48;6.30;;;1.87;;
286;SDS011;127;48.770;9.212;2022-07-01T11:18:17;3.30;;;1.77;;
286;SDS011;127;48.770;9.212;2022-07-01T11:20:47;5.17;;;2.00;;
286;SDS011;127;48.770;9.212;2022-07-01T11:23:16;4.97;;;1.80;;
286;SDS011;127;48.770;9.212;2022-07-01T11:25:48;4.70;;;2.97;;
286;SDS011;127;48.770;9.212;2022-07-01T11:28:17;7.33;;;2.27;;
286;SDS011;127;48.770;9.212;2022-07-01T11:30:46;4.50;;;2.50;;
286;SDS011;127;48.770;9.212;2022-07-01T11:33:14;4.00;;;2.50;;
286;SDS011;127;48.770;9.212;2022-07-01T11:35:47;3.07;;;1.93;;
286;SDS011;127;48.770;9.212;2022-07-01T11:38:28;5.57;;;2.50;;
286;SDS011;127;48.770;9.212;2022-07-01T11:41:17;1.90;;;1.80;;
286;SDS011;127;48.770;9.212;2022-07-01T11:43:47;5.80;;;2.60;;
286;SDS011;127;48.770;9.212;2022-07-01T11:46:17;5.17;;;1.83;;
286;SDS011;127;48.770;9.212;2022-07-01T11:48:47;2.37;;;2.00;;
286;SDS011;127;48.770;9.212;2022-07-01T11:51:18;4.37;;;1.80;;
286;SDS011;127;48.770;9.212;2022-07-01T11:53:49;5.10;;;1.90;;
286;SDS011;127;48.770;9.212;2022-07-01T11:56:30;4.40;;;1.57;;
286;SDS011;127;48.770;9.212;2022-07-01T11:59:01;5.70;;;2.13;;
286;SDS011;127;48.770;9.212;2022-07-01T12:01:31;2.80;;;1.97;;
286;SDS011;127;48.770;9.212;2022-07-01T12:04:01;5.70;;;2.03;;
286;SDS011;127;48.770;9.212;2022-07-01T12:06:31;2.13;;;1.90;;
286;SDS011;127;48.770;9.212;2022-07-01T12:09:03;4.20;;;1.90;;
286;SDS011;127;48.770;9.212;2022-07-01T12:11:35;1.60;;;1.60;;
286;SDS011;127;48.770;9.212;2022-07-01T12:14:03;3.70;;;1.67;;
286;SDS011;127;48.770;9.212;2022-07-01T12:16:37;3.90;;;1.57;;
286;SDS011;127;48.770;9.212;2022-07-01T12:19:07;3.67;;;1.60;;
286;SDS011;127;48.770;9.212;2022-07-01T12:21:46;3.00;;;1.63;;
286;SDS011;127;48.770;9.212;2022-07-01T12:24:17;6.53;;;2.20;;
286;SDS011;127;48.770;9.212;2022-07-01T12:26:51;6.57;;;2.10;;
286;SDS011;127;48.770;9.212;2022-07-01T12:29:21;5.93;;;1.77;;
286;SDS011;127;48.770;9.212;2022-07-01T12:31:57;1.80;;;1.50;;
286;SDS011;127;48.770;9.212;2022-07-01T12:34:37;2.43;;;1.80;;
286;SDS011;127;48.770;9.212;2022-07-01T12:37:11;1.60;;;1.47;;
286;SDS011;127;48.770;9.212;2022-07-01T12:39:42;4.30;;;1.60;;
286;SDS011;127;48.770;9.212;2022-07-01T12:42:27;2.77;;;1.53;;
286;SDS011;127;48.770;9.212;2022-07-01T12:44:59;1.90;;;1.90;;
286;SDS011;127;48.770;9.212;2022-07-01T12:47:31;3.10;;;2.00;;
286;SDS011;127;48.770;9.212;2022-07-01T12:50:14;4.70;;;2.10;;
286;SDS011;127;48.770;9.212;2022-07-01T12:52:56;4.70;;;1.57;;
286;SDS011;127;48.770;9.212;2022-07-01T12:55:27;4.90;;;1.73;;
286;SDS011;127;48.770;9.212;2022-07-01T12:58:01;4.10;;;2.00;;
286;SDS011;127;48.770;9.212;2022-07-01T13:00:31;2.40;;;2.00;;
286;SDS011;127;48.770;9.212;2022-07-01T13:03:01;3.10;;;2.00;;
286;SDS011;127;48.770;9.212;2022-07-01T13:05:32;2.90;;;2.40;;
286;SDS011;127;48.770;9.212;2022-07-01T13:08:01;6.00;;;2.50;;
286;SDS011;127;48.770;9.212;2022-07-01T13:10:30;5.60;;;3.47;;
286;SDS011;127;48.770;9.212;2022-07-01T13:13:02;5.97;;;2.73;;
286;SDS011;127;48.770;9.212;2022-07-01T13:15:32;4.97;;;3.03;;
286;SDS011;127;48.770;9.212;2022-07-01T13:18:01;2.83;;;2.60;;
286;SDS011;127;48.770;9.212;2022-07-01T13:20:30;3.20;;;1.90;;
286;SDS011;127;48.770;9.212;2022-07-01T13:22:59;2.90;;;2.40;;
286;SDS011;127;48.770;9.212;2022-07-01T13:25:28;4.47;;;2.90;;
286;SDS011;127;48.770;9.212;2022-07-01T13:27:57;4.13;;;2.60;;
286;SDS011;127;48.770;9.212;2022-07-01T13:30:28;2.67;;;1.87;;
286;SDS011;127;48.770;9.212;2022-07-01T13:32:57;2.83;;;2.40;;
286;SDS011;127;48.770;9.212;2022-07-01T13:35:26;5.80;;;2.57;;
286;SDS011;127;48.770;9.212;2022-07-01T13:37:55;4.17;;;2.30;;
286;SDS011;127;48.770;9.212;2022-07-01T13:40:23;3.93;;;2.40;;
286;SDS011;127;48.770;9.212;2022-07-01T13:42:52;3.30;;;2.03;;
286;SDS011;127;48.770;9.212;2022-07-01T13:45:20;2.70;;;2.10;;
286;SDS011;127;48.770;9.212;2022-07-01T13:47:52;3.47;;;2.37;;
286;SDS011;127;48.770;9.212;2022-07-01T13:50:21;4.60;;;2.20;;
286;SDS011;127;48.770;9.212;2022-07-01T13:52:50;7.00;;;1.93;;
286;SDS011;127;48.770;9.212;2022-07-01T13:55:18;3.27;;;1.77;;
286;SDS011;127;48.770;9.212;2022-07-01T13:57:47;2.60;;;1.87;;
286;SDS011;127;48.770;9.212;2022-07-01T14:00:16;2.60;;;2.07;;
286;SDS011;127;48.770;9.212;2022-07-01T14:02:45;2.27;;;1.87;;
286;SDS011;127;48.770;9.212;2022-07-01T14:05:17;2.33;;;1.40;;
286;SDS011;127;48.770;9.212;2022-07-01T14:07:46;1.90;;;1.83;;
286;SDS011;127;48.770;9.212;2022-07-01T14:10:15;2.90;;;1.87;;
286;SDS011;127;48.770;9.212;2022-07-01T14:12:43;2.40;;;2.03;;
286;SDS011;127;48.770;9.212;2022-07-01T14:15:12;3.83;;;1.80;;
286;SDS011;127;48.770;9.212;2022-07-01T14:17:41;3.23;;;1.90;;
286;SDS011;127;48.770;9.212;2022-07-01T14:20:11;2.00;;;1.73;;
286;SDS011;127;48.770;9.212;2022-07-01T14:25:54;4.17;;;2.40;;
286;SDS011;127;48.770;9.212;2022-07-01T14:28:26;4.50;;;1.73;;
286;SDS011;127;48.770;9.212;2022-07-01T14:30:54;3.20;;;1.63;;
286;SDS011;127;48.770;9.212;2022-07-01T14:33:23;2.60;;;1.33;;
286;SDS011;127;48.770;9.212;2022-07-01T14:35:51;4.50;;;1.90;;
286;SDS011;127;48.770;9.212;2022-07-01T14:38:20;3.00;;;1.77;;
286;SDS011;127;48.770;9.212;2022-07-01T14:40:49;2.53;;;1.60;;
286;SDS011;127;48.770;9.212;2022-07-01T14:43:20;2.67;;;1.60;;
286;SDS011;127;48.770;9.212;2022-07-01T14:45:49;2.60;;;1.60;;
286;SDS011;127;48.770;9.212;2022-07-01T14:48:18;2.47;;;1.73;;
286;SDS011;127;48.770;9.212;2022-07-01T14:50:46;3.43;;;2.07;;
286;SDS011;127;48.770;9.212;2022-07-01T14:53:15;2.90;;;1.87;;
286;SDS011;127;48.770;9.212;2022-07-01T14:55:46;2.50;;;1.70;;
286;SDS011;127;48.770;9.212;2022-07-01T14:58:15;2.03;;;1.77;;
286;SDS011;127;48.770;9.212;2022-07-01T15:00:47;2.10;;;1.50;;
286;SDS011;127;48.770;9.212;2022-07-01T15:03:16;4.27;;;1.67;;
286;SDS011;127;48.770;9.212;2022-07-01T15:05:45;2.17;;;1.47;;
286;SDS011;127;48.770;9.212;2022-07-01T15:08:13;5.77;;;1.73;;
286;SDS011;127;48.770;9.212;2022-07-01T15:10:43;3.73;;;2.00;;
286;SDS011;127;48.770;9.212;2022-07-01T15:13:11;3.93;;;1.50;;
286;SDS011;127;48.770;9.212;2022-07-01T15:15:40;2.53;;;1.60;;
286;SDS011;127;48.770;9.212;2022-07-01T15:18:11;2.10;;;1.60;;
286;SDS011;127;48.770;9.212;2022-07-01T15:20:40;9.33;;;2.00;;
286;SDS011;127;48.770;9.212;2022-07-01T15:23:09;3.00;;;1.37;;
286;SDS011;127;48.770;9.212;2022-07-01T15:25:37;2.03;;;1.57;;
286;SDS011;127;48.770;9.212;2022-07-01T15:28:06;3.27;;;1.40;;
286;SDS011;127;48.770;9.212;2022-07-01T15:30:35;3.40;;;1.97;;
286;SDS011;127;48.770;9.212;2022-07-01T15:33:04;2.60;;;1.70;;
286;SDS011;127;48.770;9.212;2022-07-01T15:35:35;1.70;;;1.37;;
286;SDS011;127;48.770;9.212;2022-07-01T15:38:07;2.03;;;1.50;;
286;SDS011;127;48.770;9.212;2022-07-01T15:40:36;2.20;;;1.97;;
286;SDS011;127;48.770;9.212;2022-07-01T15:43:06;2.57;;;1.80;;
286;SDS011;127;48.770;9.212;2022-07-01T15:45:35;3.30;;;1.90;;
286;SDS011;127;48.770;9.212;2022-07-01T15:48:03;2.30;;;1.60;;
286;SDS011;127;48.770;9.212;2022-07-01T15:50:39;3.17;;;1.90;;
286;SDS011;127;48.770;9.212;2022-07-01T15:53:09;1.50;;;1.30;;
286;SDS011;127;48.770;9.212;2022-07-01T15:55:39;2.10;;;1.53;;
286;SDS011;127;48.770;9.212;2022-07-01T15:58:09;4.37;;;1.30;;
286;SDS011;127;48.770;9.212;2022-07-01T16:00:39;1.83;;;1.50;;
286;SDS011;127;48.770;9.212;2022-07-01T16:03:09;5.87;;;1.80;;
286;SDS011;127;48.770;9.212;2022-07-01T16:05:41;2.17;;;1.43;;
286;SDS011;127;48.770;9.212;2022-07-01T16:08:16;2.50;;;1.40;;
286;SDS011;127;48.770;9.212;2022-07-01T16:10:47;2.17;;;1.37;;
286;SDS011;127;48.770;9.212;2022-07-01T16:13:19;2.03;;;1.40;;
286;SDS011;127;48.770;9.212;2022-07-01T16:15:49;2.73;;;1.30;;
286;SDS011;127;48.770;9.212;2022-07-01T16:18:19;1.63;;;1.57;;
286;SDS011;127;48.770;9.212;2022-07-01T16:20:56;3.70;;;1.50;;
286;SDS011;127;48.770;9.212;2022-07-01T16:23:26;6.27;;;1.70;;
286;SDS011;127;48.770;9.212;2022-07-01T16:25:58;3.13;;;1.70;;
286;SDS011;127;48.770;9.212;2022-07-01T16:28:28;2.50;;;1.63;;
286;SDS011;127;48.770;9.212;2022-07-01T16:30:58;2.00;;;1.50;;
286;SDS011;127;48.770;9.212;2022-07-01T16:33:27;2.80;;;1.90;;